createdAt,value
2019-04-21T00:00:33.031Z,36.50
2019-04-21T00:03:11.466Z,37.00
2019-04-21T00:05:57.127Z,37.00
2019-04-21T00:08:30.959Z,37.10
2019-04-21T00:11:03.012Z,36.80
2019-04-21T00:13:30.508Z,37.20
2019-04-21T00:15:48.954Z,37.20
2019-04-21T00:18:40.890Z,37.50
2019-04-21T00:21:14.876Z,37.40
2019-04-21T00:23:59.065Z,37.40
2019-04-21T00:26:32.121Z,37.20
2019-04-21T00:29:03.925Z,37.30
2019-04-21T00:31:28.550Z,37.80
2019-04-21T00:33:48.185Z,37.70
2019-04-21T00:36:24.190Z,37.60
2019-04-21T00:39:25.121Z,37.60
2019-04-21T00:41:47.457Z,37.70
2019-04-21T00:44:04.755Z,37.60
2019-04-21T00:46:41.278Z,37.60
2019-04-21T00:49:12.232Z,37.60
2019-04-21T00:52:13.908Z,38.10
2019-04-21T00:54:50.118Z,38.50
2019-04-21T00:57:18.074Z,38.50
2019-04-21T00:59:45.415Z,38.80
2019-04-21T01:02:10.910Z,38.80
2019-04-21T01:04:50.117Z,38.80
2019-04-21T01:07:22.210Z,39.50
2019-04-21T01:09:45.263Z,39.50
2019-04-21T01:12:26.833Z,39.80
2019-04-21T01:15:04.921Z,40.10
2019-04-21T01:17:27.755Z,40.40
2019-04-21T01:19:55.719Z,41.00
2019-04-21T01:22:09.684Z,41.00
2019-04-21T01:24:43.767Z,41.20
2019-04-21T01:27:22.429Z,41.10
2019-04-21T01:30:05.617Z,41.60
2019-04-21T01:32:37.398Z,41.50
2019-04-21T01:35:08.721Z,41.50
2019-04-21T01:37:44.287Z,41.40
2019-04-21T01:40:16.962Z,41.40
2019-04-21T01:42:46.907Z,41.60
2019-04-21T01:45:20.142Z,41.40
2019-04-21T01:47:44.346Z,41.20
2019-04-21T01:50:09.596Z,41.10
2019-04-21T01:55:35.695Z,41.60
2019-04-21T01:58:09.827Z,41.20
2019-04-21T02:00:45.144Z,41.30
2019-04-21T02:03:43.931Z,41.40
2019-04-21T02:05:58.713Z,41.60
2019-04-21T02:08:28.780Z,41.90
2019-04-21T02:11:08.013Z,42.30
2019-04-21T02:13:28.901Z,42.10
2019-04-21T02:16:08.406Z,42.50
2019-04-21T02:18:37.959Z,42.80
2019-04-21T02:20:53.851Z,43.00
2019-04-21T02:23:46.453Z,42.70
2019-04-21T02:26:12.723Z,42.50
2019-04-21T02:28:49.832Z,42.50
2019-04-21T02:34:08.825Z,42.80
2019-04-21T02:36:41.300Z,43.10
2019-04-21T02:39:08.365Z,42.80
2019-04-21T02:41:30.833Z,42.70
2019-04-21T02:44:08.246Z,42.60
2019-04-21T02:46:40.163Z,42.50
2019-04-21T02:49:17.211Z,43.00
2019-04-21T02:56:43.906Z,43.50
2019-04-21T03:04:56.827Z,45.20
2019-04-21T03:07:27.907Z,45.30
2019-04-21T03:09:51.176Z,45.10
2019-04-21T03:12:28.908Z,45.20
2019-04-21T03:15:04.389Z,45.50
2019-04-21T03:20:14.985Z,46.00
2019-04-21T03:22:31.520Z,46.00
2019-04-21T03:25:39.121Z,45.90
2019-04-21T03:27:51.257Z,45.90
2019-04-21T03:38:14.742Z,45.80
2019-04-21T03:47:53.227Z,45.80
2019-04-21T03:50:27.402Z,46.30
2019-04-21T04:01:04.159Z,46.30
2019-04-21T04:04:18.005Z,46.30
2019-04-21T04:06:56.564Z,46.50
2019-04-21T04:09:26.388Z,46.60
2019-04-21T04:17:04.800Z,47.40
2019-04-21T04:19:37.803Z,47.30
2019-04-21T04:27:20.860Z,46.60
2019-04-21T04:29:39.939Z,46.70
2019-04-21T04:32:03.657Z,46.80
2019-04-21T04:42:56.193Z,47.20
2019-04-21T04:50:29.956Z,47.10
2019-04-21T04:55:33.663Z,47.20
2019-04-21T05:00:54.086Z,47.20
2019-04-21T05:03:01.194Z,47.30
2019-04-21T05:16:43.183Z,47.00
2019-04-21T05:19:10.172Z,46.80
2019-04-21T05:23:55.762Z,47.10
2019-04-21T05:26:28.605Z,46.80
2019-04-21T05:28:55.208Z,47.30
2019-04-21T05:32:04.970Z,47.20
2019-04-21T05:34:36.086Z,47.10
2019-04-21T05:37:24.696Z,46.90
2019-04-21T05:39:55.833Z,46.50
2019-04-21T05:42:31.758Z,46.70
2019-04-21T05:45:22.579Z,47.50
2019-04-21T05:50:23.964Z,47.10
2019-04-21T05:52:49.739Z,46.40
2019-04-21T05:55:40.464Z,45.80
2019-04-21T05:58:04.155Z,45.90
2019-04-21T06:00:59.282Z,45.90
2019-04-21T06:03:10.073Z,46.00
2019-04-21T06:05:55.688Z,45.30
2019-04-21T06:08:13.246Z,44.30
2019-04-21T06:10:50.829Z,44.50
2019-04-21T06:13:19.899Z,44.10
2019-04-21T06:16:03.212Z,44.40
2019-04-21T06:18:28.442Z,44.00
2019-04-21T06:20:56.933Z,43.50
2019-04-21T06:23:25.107Z,43.60
2019-04-21T06:26:11.823Z,43.30
2019-04-21T06:28:37.925Z,42.60
2019-04-21T06:33:36.248Z,41.70
2019-04-21T06:41:32.714Z,39.80
2019-04-21T06:49:02.769Z,38.90
2019-04-21T06:51:38.634Z,39.70
2019-04-21T06:54:16.131Z,36.40
2019-04-21T06:59:09.671Z,37.30
2019-04-21T07:01:54.762Z,38.00
2019-04-21T07:04:25.404Z,35.30
2019-04-21T07:11:52.892Z,35.40
2019-04-21T07:19:34.941Z,34.00
2019-04-21T07:21:57.400Z,32.60
2019-04-21T07:27:08.954Z,33.40
2019-04-21T07:29:39.485Z,31.80
2019-04-21T07:32:11.754Z,31.60
2019-04-21T07:34:38.283Z,32.50
2019-04-21T07:37:12.583Z,32.40
2019-04-21T07:39:45.263Z,32.20
2019-04-21T07:42:13.357Z,31.70
2019-04-21T07:44:44.070Z,33.40
2019-04-21T07:47:23.392Z,30.80
2019-04-21T07:50:01.041Z,30.90
2019-04-21T07:52:39.546Z,31.20
2019-04-21T07:55:22.112Z,30.80
2019-04-21T07:57:39.463Z,30.60
2019-04-21T08:00:21.276Z,30.40
2019-04-21T08:02:49.709Z,29.10
2019-04-21T08:05:31.170Z,29.10
2019-04-21T08:07:54.779Z,28.00
2019-04-21T08:10:21.226Z,28.40
2019-04-21T08:12:47.744Z,28.50
2019-04-21T08:15:27.588Z,27.50
2019-04-21T08:18:02.635Z,26.20
2019-04-21T08:20:28.592Z,27.00
2019-04-21T08:25:34.919Z,26.40
2019-04-21T08:28:05.412Z,26.00
2019-04-21T08:30:36.461Z,26.60
2019-04-21T08:33:16.208Z,26.70
2019-04-21T08:36:05.982Z,25.10
2019-04-21T08:38:16.828Z,26.40
2019-04-21T08:40:45.149Z,25.70
2019-04-21T08:43:30.671Z,26.10
2019-04-21T08:46:08.440Z,24.90
2019-04-21T08:48:25.396Z,24.90
2019-04-21T08:51:08.300Z,25.50
2019-04-21T08:53:28.969Z,25.10
2019-04-21T08:56:41.647Z,25.10
2019-04-21T08:59:19.297Z,25.10
2019-04-21T09:02:06.314Z,24.70
2019-04-21T09:04:41.463Z,24.90
2019-04-21T09:07:14.717Z,24.70
2019-04-21T09:09:47.754Z,24.70
2019-04-21T09:12:14.932Z,24.60
2019-04-21T09:14:48.771Z,23.40
2019-04-21T09:17:19.155Z,23.20
2019-04-21T09:20:12.954Z,23.60
2019-04-21T09:22:25.546Z,23.60
2019-04-21T09:24:59.712Z,23.20
2019-04-21T09:27:27.422Z,23.10
2019-04-21T09:29:47.896Z,24.00
2019-04-21T09:32:19.715Z,22.90
2019-04-21T09:34:47.126Z,23.20
2019-04-21T09:37:28.648Z,23.80
2019-04-21T09:39:52.419Z,23.30
2019-04-21T09:42:26.983Z,23.30
2019-04-21T09:44:57.986Z,23.30
2019-04-21T09:47:35.154Z,23.20
2019-04-21T09:49:58.456Z,22.80
2019-04-21T09:52:37.533Z,23.00
2019-04-21T09:55:06.980Z,22.60
2019-04-21T09:57:41.544Z,22.80
2019-04-21T10:00:14.227Z,22.40
2019-04-21T10:02:47.055Z,22.10
2019-04-21T10:05:10.437Z,22.30
2019-04-21T10:07:42.385Z,22.00
2019-04-21T10:10:12.931Z,20.70
2019-04-21T10:12:43.386Z,21.40
2019-04-21T10:15:14.199Z,19.80
2019-04-21T10:17:51.914Z,17.30
2019-04-21T10:20:22.390Z,15.10
2019-04-21T10:22:53.107Z,15.00
2019-04-21T10:25:23.396Z,15.00
2019-04-21T10:27:53.327Z,14.90
2019-04-21T10:30:24.588Z,14.70
2019-04-21T10:32:54.856Z,14.50
2019-04-21T10:35:26.195Z,14.70
2019-04-21T10:38:10.381Z,14.10
2019-04-21T10:40:32.608Z,13.90
2019-04-21T10:43:02.257Z,13.40
2019-04-21T10:45:32.794Z,14.20
2019-04-21T10:48:03.101Z,13.40
2019-04-21T10:50:33.149Z,12.60
2019-04-21T10:53:24.963Z,12.60
2019-04-21T10:56:09.681Z,13.10
2019-04-21T10:58:36.298Z,11.70
2019-04-21T11:01:14.199Z,12.50
2019-04-21T11:03:58.484Z,12.20
2019-04-21T11:06:30.660Z,11.70
2019-04-21T11:09:01.990Z,11.80
2019-04-21T11:11:34.128Z,11.80
2019-04-21T11:14:04.443Z,12.90
2019-04-21T11:16:35.213Z,12.50
2019-04-21T11:19:06.312Z,12.50
2019-04-21T11:21:36.732Z,12.80
2019-04-21T11:24:08.070Z,12.10
2019-04-21T11:26:38.344Z,12.10
2019-04-21T11:29:08.311Z,12.10
2019-04-21T11:31:38.944Z,12.00
2019-04-21T11:34:09.223Z,12.20
2019-04-21T11:36:40.390Z,12.10
2019-04-21T11:39:33.522Z,12.00
2019-04-21T11:41:57.446Z,11.70
2019-04-21T11:44:29.071Z,11.90
2019-04-21T11:47:00.450Z,11.30
2019-04-21T11:49:32.397Z,12.20
2019-04-21T11:52:02.961Z,11.70
2019-04-21T11:54:32.957Z,11.50
2019-04-21T11:57:13.893Z,12.30
2019-04-21T11:59:35.992Z,12.30
2019-04-21T12:02:06.211Z,12.30
2019-04-21T12:04:36.668Z,12.30
2019-04-21T12:07:07.200Z,12.40
2019-04-21T12:09:37.659Z,12.30
2019-04-21T12:12:09.254Z,12.40
2019-04-21T12:14:39.846Z,12.50
2019-04-21T12:17:10.040Z,12.70
2019-04-21T12:19:40.886Z,12.50
2019-04-21T12:22:18.173Z,12.40
2019-04-21T12:24:43.153Z,12.50
2019-04-21T12:27:14.015Z,11.90
2019-04-21T12:29:44.127Z,12.40
2019-04-21T12:32:40.185Z,11.80
2019-04-21T12:35:12.320Z,11.60
2019-04-21T12:37:42.764Z,12.50
2019-04-21T12:40:14.426Z,12.20
2019-04-21T12:42:45.478Z,12.10
2019-04-21T12:45:15.492Z,12.00
2019-04-21T12:47:48.401Z,12.70
2019-04-21T12:50:17.251Z,11.90
2019-04-21T12:52:47.989Z,12.30
2019-04-21T12:55:17.987Z,12.70
2019-04-21T12:57:47.904Z,12.80
2019-04-21T13:00:19.088Z,12.30
2019-04-21T13:02:49.805Z,12.80
2019-04-21T13:05:19.981Z,12.10
2019-04-21T13:07:50.963Z,12.10
2019-04-21T13:10:22.211Z,12.30
2019-04-21T13:12:52.283Z,12.30
2019-04-21T13:15:22.155Z,12.00
2019-04-21T13:17:52.296Z,13.00
2019-04-21T13:20:23.262Z,11.60
2019-04-21T13:22:54.325Z,11.70
2019-04-21T13:25:25.359Z,12.20
2019-04-21T13:27:56.504Z,12.30
2019-04-21T13:30:26.519Z,12.10
2019-04-21T13:32:58.632Z,12.10
2019-04-21T13:35:28.949Z,12.60
2019-04-21T13:38:00.449Z,13.20
2019-04-21T13:41:01.114Z,12.40
2019-04-21T13:43:21.061Z,12.00
2019-04-21T13:45:52.162Z,11.80
2019-04-21T13:48:22.413Z,11.80
2019-04-21T13:50:53.492Z,12.00
2019-04-21T13:53:24.995Z,12.80
2019-04-21T13:55:56.426Z,12.30
2019-04-21T13:58:26.682Z,12.60
2019-04-21T14:00:57.842Z,12.00
2019-04-21T14:03:31.465Z,12.00
2019-04-21T14:06:02.582Z,11.70
2019-04-21T14:08:33.519Z,11.80
2019-04-21T14:11:03.491Z,11.90
2019-04-21T14:13:34.258Z,11.30
2019-04-21T14:16:04.171Z,11.20
2019-04-21T14:18:34.271Z,11.50
2019-04-21T14:21:05.044Z,12.00
2019-04-21T14:23:40.619Z,11.60
2019-04-21T14:26:08.601Z,11.00
2019-04-21T14:28:39.121Z,11.20
2019-04-21T14:31:10.488Z,11.60
2019-04-21T14:33:40.499Z,11.40
2019-04-21T14:36:10.711Z,11.70
2019-04-21T14:38:40.823Z,12.00
2019-04-21T14:41:12.370Z,11.20
2019-04-21T14:43:43.837Z,11.60
2019-04-21T14:46:26.934Z,11.20
2019-04-21T14:49:29.078Z,11.60
2019-04-21T14:52:07.451Z,11.30
2019-04-21T14:54:51.569Z,11.20
2019-04-21T14:57:21.466Z,10.90
2019-04-21T14:59:51.527Z,10.90
2019-04-21T15:02:22.331Z,10.50
2019-04-21T15:04:53.617Z,10.40
2019-04-21T15:07:23.504Z,10.40
2019-04-21T15:10:02.483Z,9.00
2019-04-21T15:12:25.822Z,8.90
2019-04-21T15:14:56.034Z,8.00
2019-04-21T15:17:29.138Z,8.00
2019-04-21T15:20:02.503Z,8.20
2019-04-21T15:22:30.445Z,7.60
2019-04-21T15:25:00.702Z,6.80
2019-04-21T15:27:30.929Z,7.30
2019-04-21T15:30:00.714Z,7.50
2019-04-21T15:32:32.716Z,8.70
2019-04-21T15:35:04.021Z,8.90
2019-04-21T15:37:34.169Z,8.40
2019-04-21T15:40:14.823Z,8.80
2019-04-21T15:42:36.699Z,8.90
2019-04-21T15:45:08.447Z,9.30
2019-04-21T15:47:38.366Z,9.90
2019-04-21T15:50:13.766Z,9.90
2019-04-21T15:52:41.270Z,9.60
2019-04-21T15:55:20.978Z,9.90
2019-04-21T15:58:16.723Z,9.30
2019-04-21T16:00:56.502Z,9.40
2019-04-21T16:03:26.878Z,10.30
2019-04-21T16:05:56.786Z,10.40
2019-04-21T16:08:27.108Z,10.20
2019-04-21T16:11:00.304Z,10.60
2019-04-21T16:13:29.926Z,11.10
2019-04-21T16:16:06.322Z,10.80
2019-04-21T16:18:36.452Z,11.00
2019-04-21T16:21:06.267Z,11.20
2019-04-21T16:23:38.222Z,11.60
2019-04-21T16:26:08.801Z,11.30
2019-04-21T16:28:39.498Z,11.90
2019-04-21T16:31:12.158Z,11.80
2019-04-21T16:33:43.239Z,10.90
2019-04-21T16:36:15.516Z,11.00
2019-04-21T16:38:45.625Z,12.00
2019-04-21T16:41:16.141Z,11.80
2019-04-21T16:43:47.131Z,11.80
2019-04-21T16:46:19.660Z,12.50
2019-04-21T16:48:51.645Z,12.30
2019-04-21T16:51:22.244Z,12.50
2019-04-21T16:54:03.951Z,12.40
2019-04-21T16:56:39.641Z,12.40
2019-04-21T16:59:24.292Z,13.10
2019-04-21T17:01:56.556Z,12.80
2019-04-21T17:04:26.609Z,12.40
2019-04-21T17:06:56.479Z,12.40
2019-04-21T17:09:26.623Z,12.30
2019-04-21T17:11:59.924Z,11.70
2019-04-21T17:14:45.263Z,11.70
2019-04-21T17:17:28.961Z,12.10
2019-04-21T17:19:39.656Z,12.00
2019-04-21T17:22:04.107Z,12.60
2019-04-21T17:24:34.706Z,12.50
2019-04-21T17:27:05.144Z,12.80
2019-04-21T17:29:36.574Z,12.70
2019-04-21T17:32:09.304Z,12.80
2019-04-21T17:34:39.543Z,12.90
2019-04-21T17:37:10.972Z,12.70
2019-04-21T17:39:40.979Z,12.70
2019-04-21T17:42:23.338Z,13.20
2019-04-21T17:44:43.541Z,13.40
2019-04-21T17:47:25.315Z,13.50
2019-04-21T17:49:50.723Z,13.80
2019-04-21T17:52:59.052Z,14.00
2019-04-21T17:55:31.304Z,14.00
2019-04-21T17:58:16.278Z,14.10
2019-04-21T18:01:10.882Z,14.00
2019-04-21T18:03:40.272Z,14.10
2019-04-21T18:05:56.029Z,14.50
2019-04-21T18:08:32.593Z,14.80
2019-04-21T18:10:54.448Z,15.00
2019-04-21T18:13:19.542Z,15.30
2019-04-21T18:16:01.638Z,15.50
2019-04-21T18:18:20.928Z,15.70
2019-04-21T18:20:56.732Z,15.90
2019-04-21T18:23:45.566Z,16.50
2019-04-21T18:26:09.869Z,16.70
2019-04-21T18:28:36.721Z,17.10
2019-04-21T18:31:12.137Z,17.30
2019-04-21T18:33:59.916Z,17.80
2019-04-21T18:36:45.501Z,21.20
2019-04-21T18:39:47.633Z,20.20
2019-04-21T18:42:45.482Z,19.30
2019-04-21T18:48:30.643Z,19.10
2019-04-21T18:51:04.077Z,18.90
2019-04-21T18:53:48.094Z,19.00
2019-04-21T18:56:08.282Z,19.30
2019-04-21T18:58:36.201Z,19.40
2019-04-21T19:01:12.645Z,19.90
2019-04-21T19:03:41.972Z,20.20
2019-04-21T19:06:16.434Z,20.90
2019-04-21T19:11:28.042Z,21.40
2019-04-21T19:14:28.569Z,21.60
2019-04-21T19:21:46.972Z,22.20
2019-04-21T19:27:03.166Z,23.10
2019-04-21T19:29:29.626Z,23.30
2019-04-21T19:31:57.752Z,23.50
2019-04-21T19:34:23.411Z,23.70
2019-04-21T19:36:51.976Z,23.80
2019-04-21T19:39:36.083Z,24.30
2019-04-21T19:42:00.522Z,24.20
2019-04-21T19:44:38.277Z,24.30
2019-04-21T19:47:13.774Z,24.40
2019-04-21T19:49:48.171Z,24.50
2019-04-21T19:52:05.252Z,25.00
2019-04-21T19:54:35.470Z,24.90
2019-04-21T19:57:00.847Z,24.80
2019-04-21T19:59:39.943Z,24.80
2019-04-21T20:02:02.765Z,24.80
2019-04-21T20:04:40.700Z,25.00
2019-04-21T20:07:22.076Z,25.50
2019-04-21T20:09:50.820Z,25.50
2019-04-21T20:12:34.236Z,25.90
2019-04-21T20:15:04.803Z,25.90
2019-04-21T20:17:31.192Z,26.30
2019-04-21T20:19:44.566Z,26.00
2019-04-21T20:22:14.833Z,26.20
2019-04-21T20:24:53.291Z,26.30
2019-04-21T20:27:24.031Z,26.60
2019-04-21T20:30:10.931Z,26.60
2019-04-21T20:32:38.103Z,26.90
2019-04-21T20:35:25.149Z,26.90
2019-04-21T20:37:48.015Z,27.30
2019-04-21T20:40:17.924Z,27.40
2019-04-21T20:42:48.945Z,27.50
2019-04-21T20:47:46.726Z,27.80
2019-04-21T20:50:27.413Z,28.30
2019-04-21T20:53:06.194Z,28.60
2019-04-21T20:55:26.580Z,28.30
2019-04-21T20:57:59.637Z,28.00
2019-04-21T21:00:45.701Z,28.30
2019-04-21T21:03:12.232Z,28.10
2019-04-21T21:05:41.244Z,28.20
2019-04-21T21:08:16.867Z,28.40
2019-04-21T21:10:45.281Z,28.70
2019-04-21T21:13:28.388Z,28.80
2019-04-21T21:16:03.789Z,29.50
2019-04-21T21:18:50.127Z,28.90
2019-04-21T21:21:00.372Z,28.90
2019-04-21T21:23:26.105Z,28.90
2019-04-21T21:26:01.929Z,28.80
2019-04-21T21:28:29.013Z,29.00
2019-04-21T21:31:10.678Z,29.20
2019-04-21T21:33:37.455Z,29.40
2019-04-21T21:36:10.691Z,29.60
2019-04-21T21:38:43.689Z,29.50
2019-04-21T21:41:03.311Z,29.90
2019-04-21T21:43:27.481Z,30.10
2019-04-21T21:46:01.388Z,30.20
2019-04-21T21:48:40.698Z,30.70
2019-04-21T21:51:10.743Z,30.60
2019-04-21T21:53:36.193Z,30.60
2019-04-21T21:56:06.949Z,30.50
2019-04-21T21:58:41.921Z,32.00
2019-04-21T22:01:13.414Z,31.40
2019-04-21T22:03:46.676Z,32.00
2019-04-21T22:06:20.518Z,31.40
2019-04-21T22:08:48.649Z,31.60
2019-04-21T22:11:20.121Z,31.50
2019-04-21T22:13:57.657Z,32.90
2019-04-21T22:16:27.548Z,32.10
2019-04-21T22:19:23.689Z,32.20
2019-04-21T22:21:49.405Z,32.40
2019-04-21T22:24:06.673Z,32.70
2019-04-21T22:26:31.240Z,32.90
2019-04-21T22:29:01.534Z,32.80
2019-04-21T22:31:34.163Z,32.80
2019-04-21T22:34:05.998Z,32.90
2019-04-21T22:36:48.737Z,33.00
2019-04-21T22:39:28.531Z,32.90
2019-04-21T22:41:46.606Z,33.10
2019-04-21T22:44:18.678Z,33.40
2019-04-21T22:46:59.954Z,33.50
2019-04-21T22:49:22.330Z,33.00
2019-04-21T22:51:53.969Z,33.20
2019-04-21T22:54:31.474Z,33.40
2019-04-21T22:57:01.628Z,32.90
2019-04-21T22:59:28.642Z,33.60
2019-04-21T23:01:59.673Z,32.80
2019-04-21T23:04:34.171Z,32.90
2019-04-21T23:07:10.236Z,32.80
2019-04-21T23:09:35.076Z,32.70
2019-04-21T23:12:05.185Z,32.80
2019-04-21T23:14:45.635Z,32.80
2019-04-21T23:17:29.807Z,32.70
2019-04-21T23:20:03.239Z,32.80
2019-04-21T23:22:28.035Z,32.80
2019-04-21T23:25:03.354Z,33.00
2019-04-21T23:27:33.678Z,33.10
2019-04-21T23:30:17.723Z,32.90
2019-04-21T23:32:30.659Z,33.10
2019-04-21T23:34:51.083Z,33.50
2019-04-21T23:37:24.143Z,33.50
2019-04-21T23:40:05.717Z,33.70
2019-04-21T23:42:31.876Z,33.90
2019-04-21T23:44:58.386Z,33.80
2019-04-21T23:47:41.874Z,34.00
2019-04-21T23:50:07.363Z,34.40
2019-04-21T23:52:31.878Z,34.40
2019-04-21T23:55:03.150Z,34.50
2019-04-21T23:57:39.738Z,34.10
